createdAt,value
2022-10-22T00:02:02.180Z,9.32
2022-10-22T00:04:34.417Z,8.70
2022-10-22T00:07:03.206Z,11.50
2022-10-22T00:09:30.915Z,7.18
2022-10-22T00:11:59.988Z,15.15
2022-10-22T00:14:27.701Z,9.75
2022-10-22T00:16:56.348Z,9.93
2022-10-22T00:19:24.048Z,10.10
2022-10-22T00:21:51.760Z,10.68
2022-10-22T00:24:19.535Z,14.90
2022-10-22T00:26:47.441Z,9.23
2022-10-22T00:29:18.642Z,10.17
2022-10-22T00:31:49.768Z,8.52
2022-10-22T00:34:18.143Z,8.48
2022-10-22T00:36:45.939Z,8.75
2022-10-22T00:39:16.194Z,12.10
2022-10-22T00:41:44.535Z,11.00
2022-10-22T00:44:45.498Z,11.95
2022-10-22T00:47:14.708Z,10.15
2022-10-22T00:49:43.381Z,10.52
2022-10-22T00:52:11.951Z,7.72
2022-10-22T00:54:40.485Z,10.33
2022-10-22T00:57:08.375Z,9.80
2022-10-22T00:59:37.425Z,9.02
2022-10-22T01:02:05.481Z,11.82
2022-10-22T01:04:34.518Z,8.85
2022-10-22T01:07:02.409Z,7.73
2022-10-22T01:09:37.575Z,12.35
2022-10-22T01:12:13.339Z,10.63
2022-10-22T01:14:52.045Z,9.73
2022-10-22T01:17:26.037Z,9.40
2022-10-22T01:20:06.915Z,9.37
2022-10-22T01:22:41.699Z,8.40
2022-10-22T01:25:14.654Z,9.32
2022-10-22T01:27:54.005Z,9.32
2022-10-22T01:30:24.259Z,8.88
2022-10-22T01:32:55.543Z,9.07
2022-10-22T01:35:29.019Z,8.50
2022-10-22T01:37:59.656Z,9.18
2022-10-22T01:40:29.362Z,10.40
2022-10-22T01:42:58.821Z,9.15
2022-10-22T01:45:31.281Z,8.17
2022-10-22T01:48:09.730Z,10.88
2022-10-22T01:50:54.234Z,10.65
2022-10-22T01:53:33.898Z,9.63
2022-10-22T01:56:16.407Z,11.80
2022-10-22T01:58:52.895Z,8.47
2022-10-22T02:01:32.435Z,8.65
2022-10-22T02:04:04.155Z,8.35
2022-10-22T02:06:33.530Z,10.75
2022-10-22T02:09:02.601Z,8.27
2022-10-22T02:11:30.980Z,12.20
2022-10-22T02:14:02.594Z,9.90
2022-10-22T02:16:34.529Z,10.63
2022-10-22T02:19:05.542Z,11.02
2022-10-22T02:21:33.381Z,13.43
2022-10-22T02:24:01.592Z,10.47
2022-10-22T02:26:33.710Z,11.10
2022-10-22T02:29:06.416Z,7.80
2022-10-22T02:31:39.919Z,7.90
2022-10-22T02:34:11.200Z,13.55
2022-10-22T02:36:40.243Z,7.03
2022-10-22T02:39:09.679Z,10.98
2022-10-22T02:41:38.476Z,9.43
2022-10-22T02:44:10.443Z,14.13
2022-10-22T02:46:40.217Z,9.93
2022-10-22T02:49:08.276Z,12.77
2022-10-22T02:51:36.498Z,10.77
2022-10-22T02:54:04.505Z,10.90
2022-10-22T02:56:32.446Z,10.98
2022-10-22T02:59:00.251Z,11.48
2022-10-22T03:01:28.044Z,12.33
2022-10-22T03:03:57.128Z,10.30
2022-10-22T03:08:53.790Z,13.35
2022-10-22T03:11:21.516Z,9.93
2022-10-22T03:13:49.219Z,8.43
2022-10-22T03:16:16.919Z,10.88
2022-10-22T03:18:44.710Z,13.88
2022-10-22T03:21:24.581Z,7.60
2022-10-22T03:23:53.051Z,9.32
2022-10-22T03:26:22.032Z,9.17
2022-10-22T03:28:49.964Z,10.15
2022-10-22T03:31:17.828Z,9.95
2022-10-22T03:33:45.579Z,12.48
2022-10-22T03:36:14.820Z,10.45
2022-10-22T03:38:43.089Z,9.70
2022-10-22T03:41:10.949Z,11.13
2022-10-22T03:43:40.704Z,9.48
2022-10-22T03:46:08.504Z,14.10
2022-10-22T03:48:36.369Z,12.93
2022-10-22T03:51:04.285Z,7.57
2022-10-22T03:53:33.628Z,9.20
2022-10-22T03:56:01.307Z,9.38
2022-10-22T03:58:29.212Z,12.43
2022-10-22T04:00:57.035Z,9.57
2022-10-22T04:03:24.817Z,9.47
2022-10-22T04:05:52.510Z,12.35
2022-10-22T04:08:20.259Z,11.43
2022-10-22T04:10:53.332Z,10.57
2022-10-22T04:13:21.070Z,14.40
2022-10-22T04:15:48.859Z,11.57
2022-10-22T04:18:16.655Z,11.35
2022-10-22T04:20:44.433Z,10.00
2022-10-22T04:23:12.578Z,10.68
2022-10-22T04:25:40.532Z,12.10
2022-10-22T04:28:10.520Z,11.57
2022-10-22T04:30:38.353Z,10.57
2022-10-22T04:33:06.179Z,12.68
2022-10-22T04:35:33.971Z,6.60
2022-10-22T04:38:01.719Z,9.98
2022-10-22T04:40:29.526Z,12.80
2022-10-22T04:42:57.893Z,9.85
2022-10-22T04:45:27.076Z,11.57
2022-10-22T04:47:54.950Z,14.27
2022-10-22T04:50:22.692Z,9.75
2022-10-22T04:52:50.481Z,13.13
2022-10-22T04:55:18.393Z,9.38
2022-10-22T04:57:46.331Z,9.02
2022-10-22T05:00:16.622Z,11.35
2022-10-22T05:02:50.309Z,8.80
2022-10-22T05:05:18.288Z,12.87
2022-10-22T05:07:46.009Z,12.82
2022-10-22T05:10:13.969Z,9.00
2022-10-22T05:12:41.706Z,11.48
2022-10-22T05:15:10.656Z,9.07
2022-10-22T05:17:38.932Z,9.87
2022-10-22T05:20:09.868Z,12.27
2022-10-22T05:22:37.592Z,13.70
2022-10-22T05:25:06.018Z,13.75
2022-10-22T05:27:33.714Z,10.75
2022-10-22T05:30:01.447Z,12.23
2022-10-22T05:32:29.171Z,9.35
2022-10-22T05:34:56.963Z,13.40
2022-10-22T05:37:26.106Z,12.05
2022-10-22T05:40:01.820Z,14.35
2022-10-22T05:42:40.703Z,10.63
2022-10-22T05:45:09.328Z,8.73
2022-10-22T05:47:37.111Z,14.85
2022-10-22T05:50:05.190Z,15.02
2022-10-22T05:52:34.365Z,13.13
2022-10-22T05:55:02.096Z,10.03
2022-10-22T05:57:29.857Z,9.48
2022-10-22T05:59:57.562Z,12.00
2022-10-22T06:02:25.420Z,13.88
2022-10-22T06:04:53.142Z,11.00
2022-10-22T06:07:21.037Z,8.33
2022-10-22T06:09:50.400Z,9.52
2022-10-22T06:12:18.214Z,11.02
2022-10-22T06:14:46.349Z,11.07
2022-10-22T06:17:14.066Z,9.68
2022-10-22T06:19:41.904Z,8.47
2022-10-22T06:22:09.672Z,11.98
2022-10-22T06:24:40.423Z,11.88
2022-10-22T06:27:12.017Z,9.45
2022-10-22T06:29:39.761Z,11.52
2022-10-22T06:32:07.583Z,10.13
2022-10-22T06:34:35.318Z,12.75
2022-10-22T06:37:03.074Z,11.90
2022-10-22T06:39:31.007Z,11.02
2022-10-22T06:41:58.908Z,14.95
2022-10-22T06:44:35.928Z,9.57
2022-10-22T06:47:03.806Z,15.80
2022-10-22T06:49:31.547Z,9.15
2022-10-22T06:51:59.346Z,10.43
2022-10-22T06:54:27.394Z,9.57
2022-10-22T06:56:55.314Z,9.93
2022-10-22T06:59:23.211Z,10.25
2022-10-22T07:01:55.481Z,9.15
2022-10-22T07:04:28.766Z,12.20
2022-10-22T07:06:57.304Z,13.27
2022-10-22T07:09:25.247Z,14.50
2022-10-22T07:11:53.086Z,10.73
2022-10-22T07:14:20.798Z,10.43
2022-10-22T07:16:48.555Z,10.25
2022-10-22T07:19:17.722Z,18.00
2022-10-22T07:21:45.581Z,12.57
2022-10-22T07:24:13.355Z,7.95
2022-10-22T07:26:41.271Z,11.70
2022-10-22T07:29:10.012Z,11.25
2022-10-22T07:31:37.764Z,10.95
2022-10-22T07:34:05.851Z,9.87
2022-10-22T07:36:34.997Z,10.95
2022-10-22T07:39:04.452Z,12.27
2022-10-22T07:41:32.263Z,10.50
2022-10-22T07:44:00.488Z,6.35
2022-10-22T07:46:28.613Z,9.60
2022-10-22T07:48:56.593Z,9.63
2022-10-22T07:51:24.452Z,10.32
2022-10-22T07:53:53.552Z,17.67
2022-10-22T07:56:21.228Z,9.38
2022-10-22T07:58:49.109Z,12.53
2022-10-22T08:01:16.824Z,11.88
2022-10-22T08:03:44.582Z,10.57
2022-10-22T08:06:14.475Z,8.93
2022-10-22T08:08:43.379Z,11.95
2022-10-22T08:11:12.761Z,11.40
2022-10-22T08:13:45.095Z,10.52
2022-10-22T08:16:14.027Z,12.05
2022-10-22T08:18:41.748Z,10.65
2022-10-22T08:21:09.693Z,12.05
2022-10-22T08:23:37.580Z,10.63
2022-10-22T08:26:06.373Z,8.63
2022-10-22T08:28:38.191Z,18.02
2022-10-22T08:31:07.339Z,13.05
2022-10-22T08:33:35.697Z,12.07
2022-10-22T08:36:03.565Z,14.70
2022-10-22T08:38:32.271Z,10.95
2022-10-22T08:41:08.579Z,8.90
2022-10-22T08:44:22.435Z,12.95
2022-10-22T08:47:16.453Z,10.13
2022-10-22T08:49:46.997Z,10.23
2022-10-22T08:52:17.193Z,10.52
2022-10-22T08:54:53.439Z,7.43
2022-10-22T08:57:34.369Z,13.07
2022-10-22T09:00:05.765Z,13.18
2022-10-22T09:02:48.141Z,12.70
2022-10-22T09:05:24.703Z,10.63
2022-10-22T09:07:53.108Z,14.65
2022-10-22T09:10:25.904Z,10.15
2022-10-22T09:12:53.961Z,15.38
2022-10-22T09:15:22.494Z,15.80
2022-10-22T09:18:03.840Z,17.10
2022-10-22T09:20:39.942Z,14.93
2022-10-22T09:23:23.323Z,17.05
2022-10-22T09:25:53.269Z,15.63
2022-10-22T09:28:23.054Z,18.97
2022-10-22T09:30:50.977Z,17.67
2022-10-22T09:33:26.302Z,13.88
2022-10-22T09:35:56.457Z,13.55
2022-10-22T09:38:27.959Z,18.90
2022-10-22T09:40:57.245Z,13.40
2022-10-22T09:43:25.523Z,16.45
2022-10-22T09:45:58.378Z,13.55
2022-10-22T09:48:34.398Z,17.73
2022-10-22T09:51:07.268Z,13.43
2022-10-22T09:53:38.458Z,24.33
2022-10-22T09:56:10.612Z,12.23
2022-10-22T09:58:46.194Z,16.65
2022-10-22T10:01:18.991Z,15.38
2022-10-22T10:03:49.335Z,17.45
2022-10-22T10:06:20.360Z,13.37
2022-10-22T10:08:48.704Z,13.48
2022-10-22T10:11:28.893Z,12.02
2022-10-22T10:14:06.874Z,11.68
2022-10-22T10:16:46.151Z,16.30
2022-10-22T10:19:45.836Z,12.77
2022-10-22T10:22:28.651Z,9.02
2022-10-22T10:25:11.709Z,8.98
2022-10-22T10:27:42.728Z,7.40
2022-10-22T10:30:14.580Z,15.32
2022-10-22T10:33:01.574Z,13.27
2022-10-22T10:35:36.303Z,9.98
2022-10-22T10:38:17.325Z,7.28
2022-10-22T10:40:49.520Z,7.18
2022-10-22T10:43:26.092Z,12.80
2022-10-22T10:46:01.861Z,10.90
2022-10-22T10:48:42.545Z,7.88
2022-10-22T10:51:23.839Z,8.05
2022-10-22T10:54:17.941Z,7.03
2022-10-22T10:56:50.568Z,12.02
2022-10-22T10:59:26.739Z,12.50
2022-10-22T11:02:15.064Z,10.00
2022-10-22T11:05:22.357Z,6.47
2022-10-22T11:07:57.028Z,6.10
2022-10-22T11:10:31.316Z,7.88
2022-10-22T11:13:04.708Z,9.47
2022-10-22T11:15:35.058Z,8.68
2022-10-22T11:18:12.154Z,10.20
2022-10-22T11:20:53.165Z,10.60
2022-10-22T11:23:28.749Z,11.23
2022-10-22T11:25:56.585Z,9.23
2022-10-22T11:28:28.306Z,9.65
2022-10-22T11:31:02.608Z,4.93
2022-10-22T11:33:37.019Z,6.80
2022-10-22T11:36:07.315Z,7.30
2022-10-22T11:38:36.850Z,9.00
2022-10-22T11:41:10.803Z,8.02
2022-10-22T11:43:57.168Z,10.88
2022-10-22T11:46:39.255Z,8.77
2022-10-22T11:49:19.241Z,8.07
2022-10-22T11:51:48.089Z,11.60
2022-10-22T11:54:42.300Z,14.15
2022-10-22T11:57:27.206Z,9.70
2022-10-22T11:59:58.993Z,10.70
2022-10-22T12:02:44.617Z,9.07
2022-10-22T12:05:35.002Z,9.90
2022-10-22T12:08:15.879Z,9.48
2022-10-22T12:10:59.811Z,9.15
2022-10-22T12:13:29.799Z,10.00
2022-10-22T12:16:00.190Z,11.70
2022-10-22T12:18:32.883Z,7.40
2022-10-22T12:21:00.947Z,11.43
2022-10-22T12:23:32.548Z,15.77
2022-10-22T12:26:02.432Z,13.45
2022-10-22T12:28:30.312Z,10.40
2022-10-22T12:31:00.727Z,11.40
2022-10-22T12:33:32.671Z,11.65
2022-10-22T12:36:04.035Z,14.07
2022-10-22T12:38:31.793Z,17.27
2022-10-22T12:41:00.857Z,11.40
2022-10-22T12:43:30.735Z,15.00
2022-10-22T12:46:00.189Z,15.02
2022-10-22T12:48:30.730Z,11.35
2022-10-22T12:51:01.083Z,14.70
2022-10-22T12:53:32.910Z,9.95
2022-10-22T12:56:04.893Z,13.60
2022-10-22T12:58:39.131Z,15.00
2022-10-22T13:01:07.592Z,15.50
2022-10-22T13:03:38.418Z,16.45
2022-10-22T13:06:25.202Z,11.35
2022-10-22T13:09:07.484Z,22.97
2022-10-22T13:11:43.634Z,19.00
2022-10-22T13:14:22.411Z,16.10
2022-10-22T13:17:08.737Z,15.13
2022-10-22T13:19:50.053Z,12.65
2022-10-22T13:22:30.245Z,18.70
2022-10-22T13:24:59.682Z,12.10
2022-10-22T13:27:29.960Z,14.90
2022-10-22T13:30:01.629Z,13.15
2022-10-22T13:32:32.014Z,14.80
2022-10-22T13:35:01.497Z,14.33
2022-10-22T13:37:34.024Z,21.77
2022-10-22T13:40:01.816Z,14.38
2022-10-22T13:42:30.944Z,14.18
2022-10-22T13:44:58.916Z,14.45
2022-10-22T13:47:28.837Z,17.10
2022-10-22T13:50:00.466Z,10.77
2022-10-22T13:52:34.739Z,23.38
2022-10-22T13:55:02.907Z,17.77
2022-10-22T13:57:32.152Z,13.75
2022-10-22T14:00:00.339Z,17.03
2022-10-22T14:02:28.314Z,16.92
2022-10-22T14:04:56.547Z,21.02
2022-10-22T14:07:24.640Z,16.80
2022-10-22T14:09:52.539Z,18.80
2022-10-22T14:12:20.376Z,14.37
2022-10-22T14:14:49.451Z,18.80
2022-10-22T14:17:20.578Z,18.23
2022-10-22T14:19:50.156Z,16.13
2022-10-22T14:22:19.549Z,16.10
2022-10-22T14:24:48.023Z,19.17
2022-10-22T14:27:16.630Z,15.10
2022-10-22T14:29:44.708Z,23.90
2022-10-22T14:32:16.651Z,18.45
2022-10-22T14:34:46.843Z,20.13
2022-10-22T14:37:18.866Z,17.27
2022-10-22T14:39:51.993Z,21.05
2022-10-22T14:42:20.839Z,15.73
2022-10-22T14:44:48.839Z,18.55
2022-10-22T14:47:18.779Z,14.50
2022-10-22T14:49:46.969Z,16.33
2022-10-22T14:52:15.234Z,16.02
2022-10-22T14:54:43.466Z,17.42
2022-10-22T14:57:14.519Z,16.88
2022-10-22T14:59:42.614Z,16.92
2022-10-22T15:02:14.393Z,17.20
2022-10-22T15:04:43.787Z,15.90
2022-10-22T15:07:14.448Z,18.05
2022-10-22T15:09:43.617Z,16.75
2022-10-22T15:12:11.936Z,18.05
2022-10-22T15:14:39.910Z,16.70
2022-10-22T15:17:08.010Z,15.57
2022-10-22T15:19:36.107Z,16.13
2022-10-22T15:22:05.906Z,16.85
2022-10-22T15:24:34.339Z,18.60
2022-10-22T15:27:03.516Z,16.60
2022-10-22T15:29:32.603Z,13.65
2022-10-22T15:32:01.242Z,17.58
2022-10-22T15:34:32.742Z,18.00
2022-10-22T15:37:02.678Z,16.27
2022-10-22T15:39:32.795Z,13.60
2022-10-22T15:42:01.137Z,13.73
2022-10-22T15:44:30.752Z,17.33
2022-10-22T15:46:59.365Z,17.88
2022-10-22T15:49:29.771Z,17.85
2022-10-22T15:51:58.038Z,18.90
2022-10-22T15:54:28.680Z,14.88
2022-10-22T15:56:59.964Z,18.08
2022-10-22T15:59:28.100Z,15.30
2022-10-22T16:01:56.248Z,21.73
2022-10-22T16:04:24.428Z,19.07
2022-10-22T16:06:54.332Z,17.38
2022-10-22T16:09:26.319Z,14.57
2022-10-22T16:11:55.539Z,21.20
2022-10-22T16:14:25.413Z,15.50
2022-10-22T16:16:55.892Z,17.83
2022-10-22T16:19:25.295Z,17.42
2022-10-22T16:21:55.767Z,18.25
2022-10-22T16:24:24.517Z,21.80
2022-10-22T16:26:53.333Z,18.08
2022-10-22T16:29:21.523Z,17.20
2022-10-22T16:31:50.944Z,14.65
2022-10-22T16:34:19.042Z,18.67
2022-10-22T16:36:48.867Z,14.23
2022-10-22T16:39:17.098Z,21.40
2022-10-22T16:41:45.660Z,16.20
2022-10-22T16:44:13.651Z,18.77
2022-10-22T16:46:41.922Z,18.88
2022-10-22T16:49:14.393Z,17.20
2022-10-22T16:51:42.415Z,14.63
2022-10-22T16:54:13.481Z,12.73
2022-10-22T16:56:41.906Z,18.67
2022-10-22T16:59:09.899Z,15.48
2022-10-22T17:01:41.519Z,17.77
2022-10-22T17:04:11.362Z,16.73
2022-10-22T17:06:39.544Z,17.17
2022-10-22T17:09:07.826Z,16.40
2022-10-22T17:11:39.181Z,15.93
2022-10-22T17:14:10.253Z,18.02
2022-10-22T17:16:38.284Z,16.40
2022-10-22T17:19:06.887Z,19.50
2022-10-22T17:21:36.378Z,20.90
2022-10-22T17:24:04.852Z,19.10
2022-10-22T17:26:34.703Z,23.45
2022-10-22T17:29:02.766Z,13.02
2022-10-22T17:31:35.430Z,19.37
2022-10-22T17:34:03.479Z,15.27
2022-10-22T17:36:35.677Z,21.00
2022-10-22T17:39:08.268Z,10.93
2022-10-22T17:41:38.220Z,17.58
2022-10-22T17:44:09.031Z,14.27
2022-10-22T17:46:41.168Z,16.58
2022-10-22T17:49:17.914Z,17.98
2022-10-22T17:51:45.985Z,14.52
2022-10-22T17:54:16.377Z,13.15
2022-10-22T17:56:44.375Z,15.70
2022-10-22T17:59:14.934Z,13.77
2022-10-22T18:01:45.737Z,17.88
2022-10-22T18:04:16.759Z,18.85
2022-10-22T18:06:46.097Z,23.40
2022-10-22T18:09:18.719Z,12.40
2022-10-22T18:11:47.661Z,13.82
2022-10-22T18:14:16.034Z,14.43
2022-10-22T18:16:43.750Z,21.25
2022-10-22T18:19:13.547Z,16.65
2022-10-22T18:21:41.258Z,22.87
2022-10-22T18:24:10.495Z,17.52
2022-10-22T18:26:39.789Z,19.98
2022-10-22T18:29:07.799Z,15.60
2022-10-22T18:31:35.617Z,17.33
2022-10-22T18:34:03.477Z,17.17
2022-10-22T18:36:31.163Z,14.88
2022-10-22T18:39:00.463Z,16.23
2022-10-22T18:41:30.191Z,16.67
2022-10-22T18:44:01.756Z,15.32
2022-10-22T18:46:31.321Z,14.87
2022-10-22T18:48:59.856Z,19.20
2022-10-22T18:51:30.563Z,15.48
2022-10-22T18:54:05.696Z,13.27
2022-10-22T18:56:40.804Z,17.02
2022-10-22T18:59:15.281Z,13.77
2022-10-22T19:01:43.016Z,16.42
2022-10-22T19:04:10.786Z,13.23
2022-10-22T19:06:41.764Z,16.55
2022-10-22T19:09:11.278Z,18.85
2022-10-22T19:11:39.179Z,15.23
2022-10-22T19:14:07.100Z,13.55
2022-10-22T19:16:37.656Z,14.07
2022-10-22T19:19:07.781Z,21.25
2022-10-22T19:21:36.153Z,16.52
2022-10-22T19:24:04.505Z,16.57
2022-10-22T19:26:32.643Z,16.50
2022-10-22T19:29:01.154Z,18.25
2022-10-22T19:31:31.548Z,16.08
2022-10-22T19:34:02.320Z,14.90
2022-10-22T19:36:32.525Z,19.47
2022-10-22T19:39:01.699Z,13.73
2022-10-22T19:41:31.118Z,19.00
2022-10-22T19:44:00.567Z,21.75
2022-10-22T19:46:30.166Z,14.70
2022-10-22T19:48:58.045Z,14.63
2022-10-22T19:51:29.654Z,17.27
2022-10-22T19:54:02.196Z,16.27
2022-10-22T19:56:30.656Z,14.52
2022-10-22T19:58:58.826Z,13.38
2022-10-22T20:01:27.579Z,18.57
2022-10-22T20:03:55.602Z,26.17
2022-10-22T20:06:23.349Z,15.15
2022-10-22T20:08:55.945Z,16.42
2022-10-22T20:11:26.236Z,19.55
2022-10-22T20:13:54.745Z,18.27
2022-10-22T20:16:24.590Z,20.35
2022-10-22T20:18:52.539Z,19.98
2022-10-22T20:21:21.927Z,16.60
2022-10-22T20:23:56.316Z,19.13
2022-10-22T20:26:25.734Z,14.37
2022-10-22T20:28:53.696Z,19.40
2022-10-22T20:31:23.962Z,17.98
2022-10-22T20:33:52.321Z,19.58
2022-10-22T20:36:22.481Z,16.20
2022-10-22T20:38:51.208Z,20.17
2022-10-22T20:41:22.246Z,17.85
2022-10-22T20:43:52.024Z,23.90
2022-10-22T20:46:22.896Z,24.30
2022-10-22T20:48:52.106Z,24.08
2022-10-22T20:51:20.283Z,21.47
2022-10-22T20:53:48.196Z,17.73
2022-10-22T20:56:17.744Z,16.40
2022-10-22T20:58:48.932Z,19.77
2022-10-22T21:01:22.247Z,17.70
2022-10-22T21:03:50.669Z,17.67
2022-10-22T21:06:24.399Z,15.07
2022-10-22T21:08:52.811Z,16.92
2022-10-22T21:11:21.337Z,14.73
2022-10-22T21:13:50.726Z,14.40
2022-10-22T21:16:19.898Z,16.60
2022-10-22T21:18:48.328Z,13.05
2022-10-22T21:21:19.032Z,15.65
2022-10-22T21:23:47.375Z,16.15
2022-10-22T21:26:15.098Z,14.50
2022-10-22T21:28:42.942Z,12.97
2022-10-22T21:31:18.668Z,16.02
2022-10-22T21:33:46.748Z,13.23
2022-10-22T21:36:16.988Z,17.45
2022-10-22T21:38:47.380Z,15.48
2022-10-22T21:41:16.996Z,21.47
2022-10-22T21:43:46.107Z,14.73
2022-10-22T21:46:16.937Z,17.20
2022-10-22T21:48:45.021Z,17.85
2022-10-22T21:51:15.272Z,18.05
2022-10-22T21:53:43.876Z,11.10
2022-10-22T21:56:16.138Z,14.40
2022-10-22T21:58:44.548Z,12.95
2022-10-22T22:01:14.520Z,14.52
2022-10-22T22:03:45.411Z,17.42
2022-10-22T22:06:13.564Z,18.17
2022-10-22T22:08:42.207Z,15.05
2022-10-22T22:11:11.983Z,15.63
2022-10-22T22:13:40.552Z,16.23
2022-10-22T22:16:10.448Z,15.63
2022-10-22T22:18:39.335Z,17.43
2022-10-22T22:21:11.467Z,14.65
2022-10-22T22:23:40.595Z,14.45
2022-10-22T22:26:09.393Z,17.90
2022-10-22T22:28:37.429Z,15.45
2022-10-22T22:31:13.869Z,19.30
2022-10-22T22:33:41.822Z,16.00
2022-10-22T22:36:11.372Z,16.02
2022-10-22T22:38:40.567Z,17.42
2022-10-22T22:41:09.134Z,16.95
2022-10-22T22:43:37.380Z,15.30
2022-10-22T22:46:07.469Z,16.92
2022-10-22T22:48:35.779Z,16.52
2022-10-22T22:51:04.466Z,18.08
2022-10-22T22:53:34.381Z,14.55
2022-10-22T22:56:07.225Z,17.33
2022-10-22T22:58:35.716Z,14.43
2022-10-22T23:01:15.456Z,19.27
2022-10-22T23:03:44.848Z,13.55
2022-10-22T23:06:13.390Z,15.07
2022-10-22T23:08:43.003Z,17.30
2022-10-22T23:11:16.161Z,19.23
2022-10-22T23:13:44.757Z,16.98
2022-10-22T23:16:15.807Z,18.63
2022-10-22T23:18:43.694Z,16.60
2022-10-22T23:21:14.205Z,12.57
2022-10-22T23:23:45.712Z,14.55
2022-10-22T23:26:14.476Z,15.35
2022-10-22T23:28:42.697Z,17.48
2022-10-22T23:31:13.606Z,15.95
2022-10-22T23:33:42.662Z,16.93
2022-10-22T23:36:11.411Z,14.98
2022-10-22T23:38:41.290Z,12.60
2022-10-22T23:41:10.601Z,14.93
2022-10-22T23:43:38.970Z,15.40
2022-10-22T23:46:08.364Z,18.10
2022-10-22T23:48:36.719Z,13.13
2022-10-22T23:51:06.674Z,16.90
2022-10-22T23:53:34.643Z,17.42
2022-10-22T23:56:05.962Z,17.75
2022-10-22T23:58:37.980Z,13.07
